sensor_id;sensor_type;location;lat;lon;timestamp;P1;durP1;ratioP1;P2;durP2;ratioP2
8415;SDS011;4245;42.120;24.732;2023-06-22T00:00:45;9.65;;;8.68;;
8415;SDS011;4245;42.120;24.732;2023-06-22T00:03:13;10.82;;;9.18;;
8415;SDS011;4245;42.120;24.732;2023-06-22T00:05:40;12.70;;;9.73;;
8415;SDS011;4245;42.120;24.732;2023-06-22T00:08:07;13.47;;;10.27;;
8415;SDS011;4245;42.120;24.732;2023-06-22T00:10:33;12.33;;;10.10;;
8415;SDS011;4245;42.120;24.732;2023-06-22T00:13:00;15.03;;;11.00;;
8415;SDS011;4245;42.120;24.732;2023-06-22T00:15:27;12.27;;;10.63;;
8415;SDS011;4245;42.120;24.732;2023-06-22T00:17:54;13.70;;;11.43;;
8415;SDS011;4245;42.120;24.732;2023-06-22T00:20:23;12.57;;;10.27;;
8415;SDS011;4245;42.120;24.732;2023-06-22T00:22:52;12.50;;;10.93;;
8415;SDS011;4245;42.120;24.732;2023-06-22T00:25:19;12.53;;;10.93;;
8415;SDS011;4245;42.120;24.732;2023-06-22T00:27:46;13.87;;;11.80;;
8415;SDS011;4245;42.120;24.732;2023-06-22T00:30:13;13.17;;;10.97;;
8415;SDS011;4245;42.120;24.732;2023-06-22T00:32:41;12.53;;;10.60;;
8415;SDS011;4245;42.120;24.732;2023-06-22T00:35:09;11.93;;;10.37;;
8415;SDS011;4245;42.120;24.732;2023-06-22T00:37:37;14.23;;;10.47;;
8415;SDS011;4245;42.120;24.732;2023-06-22T00:40:07;11.17;;;9.93;;
8415;SDS011;4245;42.120;24.732;2023-06-22T00:42:37;13.20;;;10.47;;
8415;SDS011;4245;42.120;24.732;2023-06-22T00:45:05;12.43;;;9.40;;
8415;SDS011;4245;42.120;24.732;2023-06-22T00:47:32;12.23;;;10.10;;
8415;SDS011;4245;42.120;24.732;2023-06-22T00:50:00;12.30;;;9.90;;
8415;SDS011;4245;42.120;24.732;2023-06-22T00:52:28;12.17;;;9.53;;
8415;SDS011;4245;42.120;24.732;2023-06-22T00:55:00;11.57;;;9.33;;
8415;SDS011;4245;42.120;24.732;2023-06-22T00:57:29;10.67;;;9.10;;
8415;SDS011;4245;42.120;24.732;2023-06-22T00:59:56;11.53;;;9.23;;
8415;SDS011;4245;42.120;24.732;2023-06-22T01:02:23;13.73;;;9.63;;
8415;SDS011;4245;42.120;24.732;2023-06-22T01:04:50;12.27;;;9.93;;
8415;SDS011;4245;42.120;24.732;2023-06-22T01:07:19;11.80;;;10.30;;
8415;SDS011;4245;42.120;24.732;2023-06-22T01:09:54;12.33;;;11.00;;
8415;SDS011;4245;42.120;24.732;2023-06-22T01:12:27;12.90;;;10.13;;
8415;SDS011;4245;42.120;24.732;2023-06-22T01:15:02;13.20;;;9.67;;
8415;SDS011;4245;42.120;24.732;2023-06-22T01:17:35;11.47;;;10.17;;
8415;SDS011;4245;42.120;24.732;2023-06-22T01:20:02;12.77;;;10.63;;
8415;SDS011;4245;42.120;24.732;2023-06-22T01:22:32;14.60;;;10.33;;
8415;SDS011;4245;42.120;24.732;2023-06-22T01:25:07;13.97;;;10.83;;
8415;SDS011;4245;42.120;24.732;2023-06-22T01:27:45;15.07;;;11.00;;
8415;SDS011;4245;42.120;24.732;2023-06-22T01:30:17;13.77;;;11.30;;
8415;SDS011;4245;42.120;24.732;2023-06-22T01:32:45;13.10;;;11.70;;
8415;SDS011;4245;42.120;24.732;2023-06-22T01:35:13;17.37;;;13.17;;
8415;SDS011;4245;42.120;24.732;2023-06-22T01:37:41;15.33;;;11.77;;
8415;SDS011;4245;42.120;24.732;2023-06-22T01:40:08;15.33;;;11.70;;
8415;SDS011;4245;42.120;24.732;2023-06-22T01:42:36;17.83;;;12.17;;
8415;SDS011;4245;42.120;24.732;2023-06-22T01:45:04;13.80;;;12.33;;
8415;SDS011;4245;42.120;24.732;2023-06-22T01:47:33;13.57;;;12.07;;
8415;SDS011;4245;42.120;24.732;2023-06-22T01:50:00;14.80;;;12.90;;
8415;SDS011;4245;42.120;24.732;2023-06-22T01:52:27;14.23;;;12.43;;
8415;SDS011;4245;42.120;24.732;2023-06-22T01:54:54;15.43;;;13.57;;
8415;SDS011;4245;42.120;24.732;2023-06-22T01:57:23;14.47;;;12.67;;
8415;SDS011;4245;42.120;24.732;2023-06-22T01:59:52;14.90;;;12.37;;
8415;SDS011;4245;42.120;24.732;2023-06-22T02:02:23;15.57;;;13.50;;
8415;SDS011;4245;42.120;24.732;2023-06-22T02:04:56;16.23;;;12.83;;
8415;SDS011;4245;42.120;24.732;2023-06-22T02:07:28;16.63;;;12.80;;
8415;SDS011;4245;42.120;24.732;2023-06-22T02:09:59;14.17;;;12.40;;
8415;SDS011;4245;42.120;24.732;2023-06-22T02:12:28;14.37;;;12.40;;
8415;SDS011;4245;42.120;24.732;2023-06-22T02:14:56;16.07;;;13.90;;
8415;SDS011;4245;42.120;24.732;2023-06-22T02:17:25;16.00;;;13.13;;
8415;SDS011;4245;42.120;24.732;2023-06-22T02:19:52;15.60;;;13.03;;
8415;SDS011;4245;42.120;24.732;2023-06-22T02:22:20;21.73;;;13.00;;
8415;SDS011;4245;42.120;24.732;2023-06-22T02:24:48;16.87;;;12.77;;
8415;SDS011;4245;42.120;24.732;2023-06-22T02:27:15;14.43;;;12.93;;
8415;SDS011;4245;42.120;24.732;2023-06-22T02:29:42;16.53;;;13.50;;
8415;SDS011;4245;42.120;24.732;2023-06-22T02:32:09;14.77;;;12.90;;
8415;SDS011;4245;42.120;24.732;2023-06-22T02:34:35;16.27;;;12.80;;
8415;SDS011;4245;42.120;24.732;2023-06-22T02:37:02;20.00;;;13.17;;
8415;SDS011;4245;42.120;24.732;2023-06-22T02:39:31;13.97;;;12.37;;
8415;SDS011;4245;42.120;24.732;2023-06-22T02:41:58;15.60;;;12.03;;
8415;SDS011;4245;42.120;24.732;2023-06-22T02:44:25;19.27;;;14.50;;
8415;SDS011;4245;42.120;24.732;2023-06-22T02:46:51;14.43;;;12.70;;
8415;SDS011;4245;42.120;24.732;2023-06-22T02:49:19;16.07;;;13.00;;
8415;SDS011;4245;42.120;24.732;2023-06-22T02:51:46;15.00;;;13.37;;
8415;SDS011;4245;42.120;24.732;2023-06-22T02:54:14;17.27;;;13.67;;
8415;SDS011;4245;42.120;24.732;2023-06-22T02:56:42;14.27;;;12.73;;
8415;SDS011;4245;42.120;24.732;2023-06-22T02:59:10;15.93;;;13.37;;
8415;SDS011;4245;42.120;24.732;2023-06-22T03:01:36;15.23;;;13.30;;
8415;SDS011;4245;42.120;24.732;2023-06-22T03:04:05;17.43;;;13.67;;
8415;SDS011;4245;42.120;24.732;2023-06-22T03:06:32;19.23;;;14.00;;
8415;SDS011;4245;42.120;24.732;2023-06-22T03:08:59;19.30;;;14.80;;
8415;SDS011;4245;42.120;24.732;2023-06-22T03:11:29;16.77;;;14.00;;
8415;SDS011;4245;42.120;24.732;2023-06-22T03:13:57;14.90;;;13.10;;
8415;SDS011;4245;42.120;24.732;2023-06-22T03:16:24;21.53;;;14.90;;
8415;SDS011;4245;42.120;24.732;2023-06-22T03:18:51;17.87;;;13.83;;
8415;SDS011;4245;42.120;24.732;2023-06-22T03:21:18;14.20;;;12.67;;
8415;SDS011;4245;42.120;24.732;2023-06-22T03:23:45;15.27;;;12.80;;
8415;SDS011;4245;42.120;24.732;2023-06-22T03:26:12;15.37;;;12.77;;
8415;SDS011;4245;42.120;24.732;2023-06-22T03:28:39;21.40;;;15.50;;
8415;SDS011;4245;42.120;24.732;2023-06-22T03:31:07;16.90;;;14.30;;
8415;SDS011;4245;42.120;24.732;2023-06-22T03:33:34;15.57;;;12.23;;
8415;SDS011;4245;42.120;24.732;2023-06-22T03:36:01;18.90;;;12.10;;
8415;SDS011;4245;42.120;24.732;2023-06-22T03:38:29;16.43;;;12.40;;
8415;SDS011;4245;42.120;24.732;2023-06-22T03:40:55;21.27;;;11.90;;
8415;SDS011;4245;42.120;24.732;2023-06-22T03:43:24;15.90;;;11.77;;
8415;SDS011;4245;42.120;24.732;2023-06-22T03:45:51;16.80;;;11.30;;
8415;SDS011;4245;42.120;24.732;2023-06-22T03:48:19;19.33;;;12.63;;
8415;SDS011;4245;42.120;24.732;2023-06-22T03:50:46;16.87;;;12.90;;
8415;SDS011;4245;42.120;24.732;2023-06-22T03:53:12;16.23;;;12.83;;
8415;SDS011;4245;42.120;24.732;2023-06-22T03:55:42;19.30;;;12.43;;
8415;SDS011;4245;42.120;24.732;2023-06-22T03:58:16;27.90;;;15.20;;
8415;SDS011;4245;42.120;24.732;2023-06-22T04:00:44;15.90;;;12.60;;
8415;SDS011;4245;42.120;24.732;2023-06-22T04:03:11;18.17;;;13.80;;
8415;SDS011;4245;42.120;24.732;2023-06-22T04:05:39;18.63;;;12.00;;
8415;SDS011;4245;42.120;24.732;2023-06-22T04:08:06;20.13;;;12.03;;
8415;SDS011;4245;42.120;24.732;2023-06-22T04:10:33;17.23;;;12.97;;
8415;SDS011;4245;42.120;24.732;2023-06-22T04:13:00;20.07;;;12.97;;
8415;SDS011;4245;42.120;24.732;2023-06-22T04:15:27;20.07;;;13.10;;
8415;SDS011;4245;42.120;24.732;2023-06-22T04:17:54;20.93;;;12.97;;
8415;SDS011;4245;42.120;24.732;2023-06-22T04:20:21;20.10;;;12.30;;
8415;SDS011;4245;42.120;24.732;2023-06-22T04:22:49;20.30;;;12.83;;
8415;SDS011;4245;42.120;24.732;2023-06-22T04:25:16;16.33;;;12.50;;
8415;SDS011;4245;42.120;24.732;2023-06-22T04:27:43;18.93;;;12.90;;
8415;SDS011;4245;42.120;24.732;2023-06-22T04:30:10;17.27;;;12.53;;
8415;SDS011;4245;42.120;24.732;2023-06-22T04:32:40;20.30;;;11.83;;
8415;SDS011;4245;42.120;24.732;2023-06-22T04:35:07;22.73;;;13.13;;
8415;SDS011;4245;42.120;24.732;2023-06-22T04:37:34;19.43;;;12.50;;
8415;SDS011;4245;42.120;24.732;2023-06-22T04:40:02;19.10;;;12.50;;
8415;SDS011;4245;42.120;24.732;2023-06-22T04:42:30;16.23;;;12.57;;
8415;SDS011;4245;42.120;24.732;2023-06-22T04:44:57;18.67;;;13.57;;
8415;SDS011;4245;42.120;24.732;2023-06-22T04:47:24;16.20;;;12.13;;
8415;SDS011;4245;42.120;24.732;2023-06-22T04:49:51;15.73;;;12.70;;
8415;SDS011;4245;42.120;24.732;2023-06-22T04:52:17;22.63;;;12.90;;
8415;SDS011;4245;42.120;24.732;2023-06-22T04:54:45;16.87;;;11.83;;
8415;SDS011;4245;42.120;24.732;2023-06-22T04:57:16;19.60;;;11.77;;
8415;SDS011;4245;42.120;24.732;2023-06-22T04:59:43;15.90;;;12.03;;
8415;SDS011;4245;42.120;24.732;2023-06-22T05:02:10;18.70;;;12.53;;
8415;SDS011;4245;42.120;24.732;2023-06-22T05:04:37;25.10;;;12.60;;
8415;SDS011;4245;42.120;24.732;2023-06-22T05:07:04;22.40;;;12.87;;
8415;SDS011;4245;42.120;24.732;2023-06-22T05:09:31;18.40;;;11.23;;
8415;SDS011;4245;42.120;24.732;2023-06-22T05:11:58;15.87;;;11.37;;
8415;SDS011;4245;42.120;24.732;2023-06-22T05:14:29;14.87;;;11.47;;
8415;SDS011;4245;42.120;24.732;2023-06-22T05:16:56;18.13;;;11.13;;
8415;SDS011;4245;42.120;24.732;2023-06-22T05:19:24;23.30;;;11.93;;
8415;SDS011;4245;42.120;24.732;2023-06-22T05:21:56;18.43;;;12.03;;
8415;SDS011;4245;42.120;24.732;2023-06-22T05:24:23;19.83;;;11.67;;
8415;SDS011;4245;42.120;24.732;2023-06-22T05:26:50;20.35;;;11.23;;
8415;SDS011;4245;42.120;24.732;2023-06-22T05:29:16;19.90;;;11.52;;
8415;SDS011;4245;42.120;24.732;2023-06-22T05:31:44;25.85;;;12.57;;
8415;SDS011;4245;42.120;24.732;2023-06-22T05:34:11;21.17;;;11.45;;
8415;SDS011;4245;42.120;24.732;2023-06-22T05:36:38;18.58;;;11.52;;
8415;SDS011;4245;42.120;24.732;2023-06-22T05:39:10;22.90;;;13.55;;
8415;SDS011;4245;42.120;24.732;2023-06-22T05:41:38;20.70;;;10.85;;
8415;SDS011;4245;42.120;24.732;2023-06-22T05:44:05;25.75;;;11.68;;
8415;SDS011;4245;42.120;24.732;2023-06-22T05:46:32;24.83;;;11.55;;
8415;SDS011;4245;42.120;24.732;2023-06-22T05:49:00;14.15;;;10.63;;
8415;SDS011;4245;42.120;24.732;2023-06-22T05:51:27;17.35;;;13.38;;
8415;SDS011;4245;42.120;24.732;2023-06-22T05:53:54;16.75;;;12.05;;
8415;SDS011;4245;42.120;24.732;2023-06-22T05:56:20;18.30;;;10.75;;
8415;SDS011;4245;42.120;24.732;2023-06-22T05:58:47;15.77;;;10.88;;
8415;SDS011;4245;42.120;24.732;2023-06-22T06:01:14;14.70;;;9.77;;
8415;SDS011;4245;42.120;24.732;2023-06-22T06:03:41;15.93;;;12.35;;
8415;SDS011;4245;42.120;24.732;2023-06-22T06:06:10;13.88;;;9.68;;
8415;SDS011;4245;42.120;24.732;2023-06-22T06:08:37;14.05;;;10.95;;
8415;SDS011;4245;42.120;24.732;2023-06-22T06:11:04;13.35;;;10.20;;
8415;SDS011;4245;42.120;24.732;2023-06-22T06:13:31;10.82;;;9.73;;
8415;SDS011;4245;42.120;24.732;2023-06-22T06:15:57;15.65;;;9.38;;
8415;SDS011;4245;42.120;24.732;2023-06-22T06:18:24;12.68;;;9.45;;
8415;SDS011;4245;42.120;24.732;2023-06-22T06:20:51;20.73;;;9.77;;
8415;SDS011;4245;42.120;24.732;2023-06-22T06:23:19;17.60;;;10.63;;
8415;SDS011;4245;42.120;24.732;2023-06-22T06:25:46;14.55;;;9.13;;
8415;SDS011;4245;42.120;24.732;2023-06-22T06:28:13;15.07;;;10.10;;
8415;SDS011;4245;42.120;24.732;2023-06-22T06:30:40;13.07;;;9.35;;
8415;SDS011;4245;42.120;24.732;2023-06-22T06:33:07;10.43;;;8.65;;
8415;SDS011;4245;42.120;24.732;2023-06-22T06:35:34;13.73;;;9.90;;
8415;SDS011;4245;42.120;24.732;2023-06-22T06:38:02;18.02;;;9.70;;
8415;SDS011;4245;42.120;24.732;2023-06-22T06:40:31;12.15;;;9.30;;
8415;SDS011;4245;42.120;24.732;2023-06-22T06:42:57;13.55;;;9.70;;
8415;SDS011;4245;42.120;24.732;2023-06-22T06:45:42;15.95;;;10.13;;
8415;SDS011;4245;42.120;24.732;2023-06-22T06:48:09;11.40;;;8.73;;
8415;SDS011;4245;42.120;24.732;2023-06-22T06:50:36;17.92;;;9.68;;
8415;SDS011;4245;42.120;24.732;2023-06-22T06:53:02;13.55;;;9.23;;
8415;SDS011;4245;42.120;24.732;2023-06-22T06:55:32;14.05;;;11.23;;
8415;SDS011;4245;42.120;24.732;2023-06-22T06:57:59;10.23;;;9.10;;
8415;SDS011;4245;42.120;24.732;2023-06-22T07:00:26;12.52;;;9.15;;
8415;SDS011;4245;42.120;24.732;2023-06-22T07:02:53;10.02;;;8.75;;
8415;SDS011;4245;42.120;24.732;2023-06-22T07:05:19;11.63;;;8.88;;
8415;SDS011;4245;42.120;24.732;2023-06-22T07:07:46;10.45;;;9.02;;
8415;SDS011;4245;42.120;24.732;2023-06-22T07:10:14;12.25;;;8.73;;
8415;SDS011;4245;42.120;24.732;2023-06-22T07:12:42;13.88;;;9.02;;
8415;SDS011;4245;42.120;24.732;2023-06-22T07:15:09;11.95;;;9.05;;
8415;SDS011;4245;42.120;24.732;2023-06-22T07:17:38;21.42;;;9.07;;
8415;SDS011;4245;42.120;24.732;2023-06-22T07:20:06;9.57;;;8.68;;
8415;SDS011;4245;42.120;24.732;2023-06-22T07:22:35;11.45;;;8.50;;
8415;SDS011;4245;42.120;24.732;2023-06-22T07:25:02;9.88;;;8.38;;
8415;SDS011;4245;42.120;24.732;2023-06-22T07:27:35;9.82;;;8.57;;
8415;SDS011;4245;42.120;24.732;2023-06-22T07:30:07;9.70;;;8.70;;
8415;SDS011;4245;42.120;24.732;2023-06-22T07:32:34;11.70;;;8.40;;
8415;SDS011;4245;42.120;24.732;2023-06-22T07:35:01;18.92;;;9.48;;
8415;SDS011;4245;42.120;24.732;2023-06-22T07:37:28;9.95;;;8.52;;
8415;SDS011;4245;42.120;24.732;2023-06-22T07:39:54;10.75;;;8.95;;
8415;SDS011;4245;42.120;24.732;2023-06-22T07:42:23;11.23;;;9.38;;
8415;SDS011;4245;42.120;24.732;2023-06-22T07:44:50;14.32;;;9.00;;
8415;SDS011;4245;42.120;24.732;2023-06-22T07:47:18;11.02;;;9.23;;
8415;SDS011;4245;42.120;24.732;2023-06-22T07:49:46;15.30;;;8.63;;
8415;SDS011;4245;42.120;24.732;2023-06-22T07:52:12;12.40;;;8.05;;
8415;SDS011;4245;42.120;24.732;2023-06-22T07:54:39;18.17;;;8.05;;
8415;SDS011;4245;42.120;24.732;2023-06-22T07:57:06;8.70;;;7.45;;
8415;SDS011;4245;42.120;24.732;2023-06-22T07:59:33;10.07;;;7.72;;
8415;SDS011;4245;42.120;24.732;2023-06-22T08:02:00;8.52;;;7.70;;
8415;SDS011;4245;42.120;24.732;2023-06-22T08:04:29;13.95;;;9.18;;
8415;SDS011;4245;42.120;24.732;2023-06-22T08:06:59;8.80;;;7.90;;
8415;SDS011;4245;42.120;24.732;2023-06-22T08:09:27;10.80;;;7.80;;
8415;SDS011;4245;42.120;24.732;2023-06-22T08:11:54;7.95;;;7.15;;
8415;SDS011;4245;42.120;24.732;2023-06-22T08:14:21;9.80;;;7.50;;
8415;SDS011;4245;42.120;24.732;2023-06-22T08:16:49;8.98;;;7.95;;
8415;SDS011;4245;42.120;24.732;2023-06-22T08:19:15;9.77;;;7.68;;
8415;SDS011;4245;42.120;24.732;2023-06-22T08:21:44;9.13;;;8.10;;
8415;SDS011;4245;42.120;24.732;2023-06-22T08:24:11;8.65;;;7.85;;
8415;SDS011;4245;42.120;24.732;2023-06-22T08:26:37;15.10;;;8.02;;
8415;SDS011;4245;42.120;24.732;2023-06-22T08:29:04;11.07;;;7.70;;
8415;SDS011;4245;42.120;24.732;2023-06-22T08:31:31;10.88;;;7.68;;
8415;SDS011;4245;42.120;24.732;2023-06-22T08:33:59;8.10;;;7.30;;
8415;SDS011;4245;42.120;24.732;2023-06-22T08:36:26;9.23;;;7.50;;
8415;SDS011;4245;42.120;24.732;2023-06-22T08:38:55;8.90;;;7.55;;
8415;SDS011;4245;42.120;24.732;2023-06-22T08:41:26;8.50;;;7.72;;
8415;SDS011;4245;42.120;24.732;2023-06-22T08:43:53;8.75;;;7.85;;
8415;SDS011;4245;42.120;24.732;2023-06-22T08:46:19;9.90;;;7.43;;
8415;SDS011;4245;42.120;24.732;2023-06-22T08:48:48;8.45;;;7.65;;
8415;SDS011;4245;42.120;24.732;2023-06-22T08:51:15;12.95;;;7.53;;
8415;SDS011;4245;42.120;24.732;2023-06-22T08:53:42;10.15;;;7.82;;
8415;SDS011;4245;42.120;24.732;2023-06-22T08:56:11;10.02;;;7.43;;
8415;SDS011;4245;42.120;24.732;2023-06-22T08:58:38;9.43;;;7.60;;
8415;SDS011;4245;42.120;24.732;2023-06-22T09:01:05;8.93;;;7.47;;
8415;SDS011;4245;42.120;24.732;2023-06-22T09:03:31;8.15;;;7.07;;
8415;SDS011;4245;42.120;24.732;2023-06-22T09:06:01;11.05;;;7.07;;
8415;SDS011;4245;42.120;24.732;2023-06-22T09:08:28;8.05;;;7.25;;
8415;SDS011;4245;42.120;24.732;2023-06-22T09:10:55;14.95;;;6.85;;
8415;SDS011;4245;42.120;24.732;2023-06-22T09:13:23;8.63;;;6.93;;
8415;SDS011;4245;42.120;24.732;2023-06-22T09:15:50;11.52;;;7.53;;
8415;SDS011;4245;42.120;24.732;2023-06-22T09:18:17;7.40;;;6.80;;
8415;SDS011;4245;42.120;24.732;2023-06-22T09:20:44;9.30;;;7.30;;
8415;SDS011;4245;42.120;24.732;2023-06-22T09:23:11;10.02;;;7.75;;
8415;SDS011;4245;42.120;24.732;2023-06-22T09:25:38;11.77;;;7.60;;
8415;SDS011;4245;42.120;24.732;2023-06-22T09:28:06;8.25;;;7.30;;
8415;SDS011;4245;42.120;24.732;2023-06-22T09:30:34;11.13;;;7.40;;
8415;SDS011;4245;42.120;24.732;2023-06-22T09:33:01;10.75;;;7.20;;
8415;SDS011;4245;42.120;24.732;2023-06-22T09:35:27;8.40;;;6.88;;
8415;SDS011;4245;42.120;24.732;2023-06-22T09:37:54;8.00;;;6.63;;
8415;SDS011;4245;42.120;24.732;2023-06-22T09:40:21;7.20;;;6.57;;
8415;SDS011;4245;42.120;24.732;2023-06-22T09:42:48;8.43;;;6.38;;
8415;SDS011;4245;42.120;24.732;2023-06-22T09:45:14;8.00;;;7.05;;
8415;SDS011;4245;42.120;24.732;2023-06-22T09:47:43;9.82;;;6.57;;
8415;SDS011;4245;42.120;24.732;2023-06-22T09:50:10;9.02;;;6.88;;
8415;SDS011;4245;42.120;24.732;2023-06-22T09:52:36;7.53;;;6.85;;
8415;SDS011;4245;42.120;24.732;2023-06-22T09:55:04;10.38;;;6.47;;
8415;SDS011;4245;42.120;24.732;2023-06-22T09:57:31;9.23;;;6.57;;
8415;SDS011;4245;42.120;24.732;2023-06-22T09:59:58;7.25;;;6.00;;
8415;SDS011;4245;42.120;24.732;2023-06-22T10:02:24;9.90;;;7.43;;
8415;SDS011;4245;42.120;24.732;2023-06-22T10:04:53;7.57;;;6.80;;
8415;SDS011;4245;42.120;24.732;2023-06-22T10:07:19;10.07;;;6.90;;
8415;SDS011;4245;42.120;24.732;2023-06-22T10:09:46;8.00;;;6.78;;
8415;SDS011;4245;42.120;24.732;2023-06-22T10:12:13;12.05;;;6.78;;
8415;SDS011;4245;42.120;24.732;2023-06-22T10:14:40;7.50;;;6.80;;
8415;SDS011;4245;42.120;24.732;2023-06-22T10:17:06;7.63;;;6.93;;
8415;SDS011;4245;42.120;24.732;2023-06-22T10:19:33;7.82;;;7.03;;
8415;SDS011;4245;42.120;24.732;2023-06-22T10:22:04;8.18;;;7.00;;
8415;SDS011;4245;42.120;24.732;2023-06-22T10:24:31;13.90;;;8.25;;
8415;SDS011;4245;42.120;24.732;2023-06-22T10:26:58;9.18;;;7.18;;
8415;SDS011;4245;42.120;24.732;2023-06-22T10:29:25;9.25;;;6.55;;
8415;SDS011;4245;42.120;24.732;2023-06-22T10:31:52;11.60;;;7.60;;
8415;SDS011;4245;42.120;24.732;2023-06-22T10:34:18;7.72;;;6.90;;
8415;SDS011;4245;42.120;24.732;2023-06-22T10:36:45;10.80;;;6.40;;
8415;SDS011;4245;42.120;24.732;2023-06-22T10:39:15;9.88;;;6.78;;
8415;SDS011;4245;42.120;24.732;2023-06-22T10:41:42;8.75;;;6.40;;
8415;SDS011;4245;42.120;24.732;2023-06-22T10:44:08;7.72;;;6.93;;
8415;SDS011;4245;42.120;24.732;2023-06-22T10:46:36;7.78;;;6.15;;
8415;SDS011;4245;42.120;24.732;2023-06-22T10:49:02;7.75;;;6.97;;
8415;SDS011;4245;42.120;24.732;2023-06-22T10:51:29;7.03;;;6.40;;
8415;SDS011;4245;42.120;24.732;2023-06-22T10:53:56;8.48;;;6.82;;
8415;SDS011;4245;42.120;24.732;2023-06-22T10:56:24;10.23;;;6.95;;
8415;SDS011;4245;42.120;24.732;2023-06-22T10:58:51;7.82;;;7.03;;
8415;SDS011;4245;42.120;24.732;2023-06-22T11:01:18;7.78;;;6.93;;
8415;SDS011;4245;42.120;24.732;2023-06-22T11:03:46;7.50;;;6.80;;
8415;SDS011;4245;42.120;24.732;2023-06-22T11:06:13;9.25;;;7.07;;
8415;SDS011;4245;42.120;24.732;2023-06-22T11:08:43;7.60;;;6.80;;
8415;SDS011;4245;42.120;24.732;2023-06-22T11:11:10;8.48;;;7.35;;
8415;SDS011;4245;42.120;24.732;2023-06-22T11:13:38;9.23;;;7.25;;
8415;SDS011;4245;42.120;24.732;2023-06-22T11:16:05;8.23;;;6.90;;
8415;SDS011;4245;42.120;24.732;2023-06-22T11:18:32;10.02;;;7.22;;
8415;SDS011;4245;42.120;24.732;2023-06-22T11:20:59;7.82;;;7.03;;
8415;SDS011;4245;42.120;24.732;2023-06-22T11:23:26;8.75;;;7.40;;
8415;SDS011;4245;42.120;24.732;2023-06-22T11:25:53;7.55;;;6.82;;
8415;SDS011;4245;42.120;24.732;2023-06-22T11:28:20;9.32;;;7.07;;
8415;SDS011;4245;42.120;24.732;2023-06-22T11:30:48;8.10;;;6.95;;
8415;SDS011;4245;42.120;24.732;2023-06-22T11:33:15;9.63;;;8.65;;
8415;SDS011;4245;42.120;24.732;2023-06-22T11:35:42;8.20;;;7.50;;
8415;SDS011;4245;42.120;24.732;2023-06-22T11:38:08;7.78;;;6.93;;
8415;SDS011;4245;42.120;24.732;2023-06-22T11:40:35;8.07;;;7.20;;
8415;SDS011;4245;42.120;24.732;2023-06-22T11:43:02;7.65;;;6.82;;
8415;SDS011;4245;42.120;24.732;2023-06-22T11:45:28;8.45;;;7.65;;
8415;SDS011;4245;42.120;24.732;2023-06-22T11:47:57;8.93;;;8.00;;
8415;SDS011;4245;42.120;24.732;2023-06-22T11:50:23;8.55;;;7.57;;
8415;SDS011;4245;42.120;24.732;2023-06-22T11:52:50;10.02;;;7.90;;
8415;SDS011;4245;42.120;24.732;2023-06-22T11:55:18;8.23;;;7.35;;
8415;SDS011;4245;42.120;24.732;2023-06-22T11:57:54;7.78;;;6.93;;
8415;SDS011;4245;42.120;24.732;2023-06-22T12:00:23;8.50;;;7.80;;
8415;SDS011;4245;42.120;24.732;2023-06-22T12:02:50;9.50;;;8.55;;
8415;SDS011;4245;42.120;24.732;2023-06-22T12:05:19;10.98;;;8.45;;
8415;SDS011;4245;42.120;24.732;2023-06-22T12:07:47;8.77;;;7.90;;
8415;SDS011;4245;42.120;24.732;2023-06-22T12:10:14;7.88;;;6.97;;
8415;SDS011;4245;42.120;24.732;2023-06-22T12:12:41;8.48;;;7.50;;
8415;SDS011;4245;42.120;24.732;2023-06-22T12:15:08;8.35;;;7.20;;
8415;SDS011;4245;42.120;24.732;2023-06-22T12:17:36;7.65;;;6.63;;
8415;SDS011;4245;42.120;24.732;2023-06-22T12:20:03;9.07;;;7.93;;
8415;SDS011;4245;42.120;24.732;2023-06-22T12:22:32;11.18;;;7.60;;
8415;SDS011;4245;42.120;24.732;2023-06-22T12:24:59;9.00;;;7.97;;
8415;SDS011;4245;42.120;24.732;2023-06-22T12:27:26;9.13;;;7.63;;
8415;SDS011;4245;42.120;24.732;2023-06-22T12:29:55;9.00;;;6.70;;
8415;SDS011;4245;42.120;24.732;2023-06-22T12:32:21;8.07;;;7.30;;
8415;SDS011;4245;42.120;24.732;2023-06-22T12:34:48;8.45;;;7.70;;
8415;SDS011;4245;42.120;24.732;2023-06-22T12:37:15;8.10;;;7.28;;
8415;SDS011;4245;42.120;24.732;2023-06-22T12:39:43;8.50;;;7.70;;
8415;SDS011;4245;42.120;24.732;2023-06-22T12:42:10;8.27;;;7.47;;
8415;SDS011;4245;42.120;24.732;2023-06-22T12:44:38;13.25;;;7.78;;
8415;SDS011;4245;42.120;24.732;2023-06-22T12:47:05;11.00;;;8.18;;
8415;SDS011;4245;42.120;24.732;2023-06-22T12:49:33;8.10;;;7.30;;
8415;SDS011;4245;42.120;24.732;2023-06-22T12:52:00;10.77;;;8.45;;
8415;SDS011;4245;42.120;24.732;2023-06-22T12:54:27;8.32;;;7.53;;
8415;SDS011;4245;42.120;24.732;2023-06-22T12:56:56;8.30;;;7.50;;
8415;SDS011;4245;42.120;24.732;2023-06-22T12:59:22;9.15;;;7.03;;
8415;SDS011;4245;42.120;24.732;2023-06-22T13:01:49;11.18;;;7.90;;
8415;SDS011;4245;42.120;24.732;2023-06-22T13:04:16;11.35;;;7.57;;
8415;SDS011;4245;42.120;24.732;2023-06-22T13:06:43;9.88;;;7.15;;
8415;SDS011;4245;42.120;24.732;2023-06-22T13:09:12;8.88;;;7.65;;
8415;SDS011;4245;42.120;24.732;2023-06-22T13:11:39;8.75;;;7.75;;
8415;SDS011;4245;42.120;24.732;2023-06-22T13:14:07;9.05;;;7.53;;
8415;SDS011;4245;42.120;24.732;2023-06-22T13:16:34;10.40;;;7.88;;
8415;SDS011;4245;42.120;24.732;2023-06-22T13:19:01;10.98;;;7.95;;
8415;SDS011;4245;42.120;24.732;2023-06-22T13:21:29;16.75;;;7.75;;
8415;SDS011;4245;42.120;24.732;2023-06-22T13:23:56;20.20;;;8.48;;
8415;SDS011;4245;42.120;24.732;2023-06-22T13:26:24;14.15;;;8.00;;
8415;SDS011;4245;42.120;24.732;2023-06-22T13:28:51;12.60;;;8.25;;
8415;SDS011;4245;42.120;24.732;2023-06-22T13:31:19;15.60;;;8.23;;
8415;SDS011;4245;42.120;24.732;2023-06-22T13:33:45;8.57;;;7.78;;
8415;SDS011;4245;42.120;24.732;2023-06-22T13:36:14;10.05;;;7.70;;
8415;SDS011;4245;42.120;24.732;2023-06-22T13:38:40;10.98;;;8.52;;
8415;SDS011;4245;42.120;24.732;2023-06-22T13:41:07;9.50;;;7.95;;
8415;SDS011;4245;42.120;24.732;2023-06-22T13:43:34;9.18;;;7.90;;
8415;SDS011;4245;42.120;24.732;2023-06-22T13:46:01;12.90;;;7.65;;
8415;SDS011;4245;42.120;24.732;2023-06-22T13:48:29;14.10;;;9.70;;
8415;SDS011;4245;42.120;24.732;2023-06-22T13:50:55;10.35;;;8.10;;
8415;SDS011;4245;42.120;24.732;2023-06-22T13:53:24;16.20;;;8.55;;
8415;SDS011;4245;42.120;24.732;2023-06-22T13:55:50;12.52;;;8.70;;
8415;SDS011;4245;42.120;24.732;2023-06-22T13:58:17;22.25;;;9.38;;
8415;SDS011;4245;42.120;24.732;2023-06-22T14:00:45;17.38;;;9.07;;
8415;SDS011;4245;42.120;24.732;2023-06-22T14:03:13;25.15;;;10.00;;
8415;SDS011;4245;42.120;24.732;2023-06-22T14:05:42;20.05;;;9.25;;
8415;SDS011;4245;42.120;24.732;2023-06-22T14:08:09;16.40;;;9.75;;
8415;SDS011;4245;42.120;24.732;2023-06-22T14:10:36;13.68;;;8.82;;
8415;SDS011;4245;42.120;24.732;2023-06-22T14:13:03;13.50;;;9.07;;
8415;SDS011;4245;42.120;24.732;2023-06-22T14:15:31;16.83;;;9.85;;
8415;SDS011;4245;42.120;24.732;2023-06-22T14:17:57;16.13;;;9.23;;
8415;SDS011;4245;42.120;24.732;2023-06-22T14:20:24;11.88;;;9.25;;
8415;SDS011;4245;42.120;24.732;2023-06-22T14:22:52;20.98;;;10.73;;
8415;SDS011;4245;42.120;24.732;2023-06-22T14:25:19;16.42;;;9.35;;
8415;SDS011;4245;42.120;24.732;2023-06-22T14:27:46;16.13;;;10.07;;
8415;SDS011;4245;42.120;24.732;2023-06-22T14:30:13;17.40;;;10.07;;
8415;SDS011;4245;42.120;24.732;2023-06-22T14:32:40;14.48;;;9.30;;
8415;SDS011;4245;42.120;24.732;2023-06-22T14:35:09;15.52;;;9.35;;
8415;SDS011;4245;42.120;24.732;2023-06-22T14:37:36;17.38;;;9.65;;
8415;SDS011;4245;42.120;24.732;2023-06-22T14:40:04;16.63;;;9.25;;
8415;SDS011;4245;42.120;24.732;2023-06-22T14:42:31;11.88;;;9.15;;
8415;SDS011;4245;42.120;24.732;2023-06-22T14:44:58;10.95;;;9.00;;
8415;SDS011;4245;42.120;24.732;2023-06-22T14:47:25;12.60;;;9.10;;